createdAt,value
2023-05-25T00:10:01.987Z,9.67
2023-05-25T00:20:07.414Z,9.42
2023-05-25T00:30:10.606Z,9.20
2023-05-25T00:40:16.520Z,9.24
2023-05-25T00:50:30.574Z,9.29
2023-05-25T01:00:36.907Z,9.25
2023-05-25T01:10:42.258Z,9.09
2023-05-25T01:20:59.766Z,9.00
2023-05-25T01:31:04.095Z,8.95
2023-05-25T01:41:08.149Z,9.02
2023-05-25T01:51:20.302Z,9.03
2023-05-25T02:01:25.161Z,8.91
2023-05-25T02:11:27.865Z,8.93
2023-05-25T02:21:32.643Z,8.77
2023-05-25T02:31:35.452Z,8.80
2023-05-25T02:41:40.125Z,8.77
2023-05-25T02:51:42.832Z,8.70
2023-05-25T03:01:47.099Z,8.65
2023-05-25T03:11:49.872Z,8.53
2023-05-25T03:21:54.003Z,8.56
2023-05-25T03:31:56.988Z,8.53
2023-05-25T03:42:01.561Z,8.58
2023-05-25T03:52:06.118Z,8.60
2023-05-25T04:02:10.145Z,8.81
2023-05-25T04:12:12.893Z,8.98
2023-05-25T04:22:16.981Z,9.23
2023-05-25T04:32:19.654Z,9.57
2023-05-25T04:42:24.222Z,9.92
2023-05-25T04:52:26.899Z,10.34
2023-05-25T05:02:30.961Z,10.66
2023-05-25T05:12:33.621Z,11.02
2023-05-25T05:22:38.622Z,11.40
2023-05-25T05:32:41.541Z,11.74
2023-05-25T05:42:45.592Z,12.02
2023-05-25T05:52:48.250Z,12.30
2023-05-25T06:02:52.428Z,12.74
2023-05-25T06:12:55.102Z,12.88
2023-05-25T06:22:59.093Z,13.05
2023-05-25T06:33:01.936Z,13.30
2023-05-25T06:43:06.081Z,13.80
2023-05-25T06:53:10.852Z,13.95
2023-05-25T07:03:14.850Z,14.34
2023-05-25T07:13:17.542Z,14.05
2023-05-25T07:23:21.710Z,13.64
2023-05-25T07:33:24.394Z,14.41
2023-05-25T07:43:28.756Z,14.98
2023-05-25T07:53:31.459Z,14.63
2023-05-25T08:03:48.024Z,15.39
2023-05-25T08:13:52.218Z,16.64
2023-05-25T08:23:56.871Z,17.05
2023-05-25T08:34:00.421Z,17.03
2023-05-25T08:44:08.001Z,16.37
2023-05-25T08:54:13.771Z,16.43
2023-05-25T09:04:19.645Z,17.65
2023-05-25T09:14:22.997Z,17.45
2023-05-25T09:24:27.177Z,17.67
2023-05-25T09:34:33.897Z,18.05
2023-05-25T09:44:38.362Z,18.12
2023-05-25T09:54:41.084Z,18.18
2023-05-25T10:04:46.282Z,18.66
2023-05-25T10:14:51.455Z,18.87
2023-05-25T10:25:00.756Z,18.38
2023-05-25T10:35:05.970Z,18.50
2023-05-25T10:45:11.300Z,18.28
2023-05-25T10:55:13.966Z,18.37
2023-05-25T11:05:36.190Z,18.78
2023-05-25T11:15:40.121Z,19.41
2023-05-25T11:25:45.020Z,20.15
2023-05-25T11:35:48.849Z,23.34
2023-05-25T11:45:57.813Z,28.26
2023-05-25T11:56:07.987Z,27.60
2023-05-25T12:06:25.376Z,27.28
2023-05-25T12:16:28.720Z,29.35
2023-05-25T12:26:33.217Z,24.79
2023-05-25T12:36:44.128Z,29.57
2023-05-25T12:46:48.546Z,29.07
2023-05-25T12:56:57.564Z,27.10
2023-05-25T13:07:01.669Z,27.16
2023-05-25T13:17:04.341Z,29.46
2023-05-25T13:27:08.320Z,28.02
2023-05-25T13:37:10.950Z,27.67
2023-05-25T13:47:15.013Z,26.57
2023-05-25T13:57:17.686Z,25.27
2023-05-25T14:07:21.686Z,25.04
2023-05-25T14:17:25.153Z,23.09
2023-05-25T14:27:29.153Z,23.18
2023-05-25T14:37:31.807Z,22.77
2023-05-25T14:47:36.256Z,21.96
2023-05-25T14:57:38.977Z,21.44
2023-05-25T15:07:42.989Z,21.34
2023-05-25T15:17:45.869Z,21.96
2023-05-25T15:27:49.956Z,22.32
2023-05-25T15:37:52.677Z,22.51
2023-05-25T15:47:56.733Z,21.61
2023-05-25T15:57:59.395Z,20.86
2023-05-25T16:08:03.390Z,20.70
2023-05-25T16:18:06.197Z,20.05
2023-05-25T16:28:10.944Z,20.19
2023-05-25T16:38:13.654Z,19.79
2023-05-25T16:48:17.715Z,19.60
2023-05-25T16:58:20.627Z,19.47
2023-05-25T17:08:24.624Z,19.51
2023-05-25T17:18:28.584Z,18.80
2023-05-25T17:28:32.937Z,18.47
2023-05-25T17:38:37.603Z,18.39
2023-05-25T17:48:41.589Z,18.30
2023-05-25T17:58:47.347Z,18.02
2023-05-25T18:08:51.612Z,17.68
2023-05-25T18:18:54.281Z,17.05
2023-05-25T18:28:58.277Z,16.17
2023-05-25T18:39:00.943Z,15.61
2023-05-25T18:49:05.312Z,15.11
2023-05-25T18:59:08.333Z,14.82
2023-05-25T19:09:13.391Z,14.39
2023-05-25T19:19:16.078Z,14.03
2023-05-25T19:29:20.101Z,13.65
2023-05-25T19:39:22.804Z,13.25
2023-05-25T19:49:27.204Z,13.00
2023-05-25T19:59:31.031Z,12.81
2023-05-25T20:09:35.683Z,12.49
2023-05-25T20:19:38.333Z,12.06
2023-05-25T20:29:42.722Z,11.93
2023-05-25T20:39:45.446Z,11.76
2023-05-25T20:49:49.414Z,11.48
2023-05-25T20:59:54.016Z,11.36
2023-05-25T21:09:59.312Z,11.24
2023-05-25T21:20:01.999Z,11.12
2023-05-25T21:30:06.988Z,10.98
2023-05-25T21:40:10.394Z,10.81
2023-05-25T21:50:14.586Z,10.55
2023-05-25T22:00:18.128Z,10.40
2023-05-25T22:10:22.109Z,10.23
2023-05-25T22:20:24.792Z,10.19
2023-05-25T22:30:28.922Z,10.03
2023-05-25T22:40:31.686Z,9.96
2023-05-25T22:50:35.864Z,9.78
2023-05-25T23:00:38.606Z,9.75
2023-05-25T23:10:42.726Z,9.59
2023-05-25T23:20:45.442Z,9.41
2023-05-25T23:30:49.852Z,9.18
2023-05-25T23:40:52.496Z,9.00
2023-05-25T23:50:56.585Z,8.80
